Terminal Aerodrome Forecast
Issued by NWS

Home | Current Version | Previous Version | Text Only | Print | Product List | Glossary On
Versions: 1 2 3 4 5 6 7 8 9 10 11 12 13 14 15 16 17 18 19 20 21 22 23 24 25 26 27 28 29 30 31 32 33 34 35 36 37 38 39 40 41 42 43 44
000
FTUS42 KJAX 152339
TAFCRG
TAF
KCRG 152339Z 1600/1624 13010KT P6SM VCSH SCT035 BKN080
     FM160200 11002KT P6SM FEW025 SCT250
     FM161500 12005KT P6SM SCT030
     FM161900 11009KT P6SM VCTS FEW035 BKN050CB OVC250
      TEMPO 1619/1622 5SM -TSRA SCT030 OVC045CB=

USA.gov is the U.S. government's official web portal to all federal, state and local government web resources and services.